createdAt,value
2018-06-27T00:00:06.629Z,13.00
2018-06-27T00:02:35.503Z,12.90
2018-06-27T00:05:04.682Z,12.90
2018-06-27T00:07:33.993Z,12.80
2018-06-27T00:10:03.285Z,12.80
2018-06-27T00:12:32.178Z,12.90
2018-06-27T00:15:01.103Z,12.80
2018-06-27T00:17:30.038Z,12.80
2018-06-27T00:19:59.563Z,12.80
2018-06-27T00:22:46.082Z,12.80
2018-06-27T00:25:14.859Z,12.70
2018-06-27T00:27:44.057Z,12.70
2018-06-27T00:30:13.581Z,12.60
2018-06-27T00:32:42.643Z,12.60
2018-06-27T00:35:11.421Z,12.50
2018-06-27T00:37:40.163Z,12.40
2018-06-27T00:40:08.917Z,12.40
2018-06-27T00:42:38.054Z,12.40
2018-06-27T00:45:07.533Z,12.40
2018-06-27T00:47:36.395Z,12.40
2018-06-27T00:50:05.804Z,12.40
2018-06-27T00:52:52.800Z,12.30
2018-06-27T00:55:21.626Z,12.30
2018-06-27T00:57:51.351Z,12.30
2018-06-27T01:00:20.268Z,12.40
2018-06-27T01:02:49.036Z,12.40
2018-06-27T01:05:17.973Z,12.50
2018-06-27T01:07:47.805Z,12.40
2018-06-27T01:10:16.570Z,12.40
2018-06-27T01:12:45.405Z,12.40
2018-06-27T01:15:14.915Z,12.40
2018-06-27T01:17:49.786Z,12.30
2018-06-27T01:20:18.738Z,12.20
2018-06-27T01:22:53.875Z,12.10
2018-06-27T01:25:23.249Z,12.00
2018-06-27T01:27:52.045Z,12.00
2018-06-27T01:30:20.794Z,11.90
2018-06-27T01:32:50.112Z,11.90
2018-06-27T01:35:19.503Z,11.80
2018-06-27T01:37:48.433Z,11.90
2018-06-27T01:40:17.263Z,11.90
2018-06-27T01:42:46.143Z,11.90
2018-06-27T01:45:15.218Z,11.80
2018-06-27T01:47:44.236Z,11.80
2018-06-27T01:50:13.157Z,11.80
2018-06-27T01:52:42.382Z,11.70
2018-06-27T01:55:11.234Z,11.80
2018-06-27T01:57:39.999Z,11.80
2018-06-27T02:00:09.609Z,11.80
2018-06-27T02:02:39.119Z,11.70
2018-06-27T02:05:07.961Z,11.60
2018-06-27T02:07:37.046Z,11.50
2018-06-27T02:10:05.925Z,11.50
2018-06-27T03:25:25.899Z,11.40
2018-06-27T03:28:00.416Z,10.60
2018-06-27T03:30:29.521Z,10.50
2018-06-27T03:32:58.353Z,10.20
2018-06-27T03:35:27.208Z,10.60
2018-06-27T03:37:56.340Z,10.70
2018-06-27T03:40:25.213Z,10.70
2018-06-27T03:42:54.112Z,10.60
2018-06-27T03:45:23.321Z,10.50
2018-06-27T03:47:52.462Z,10.50
2018-06-27T03:50:21.209Z,10.50
2018-06-27T03:52:50.333Z,10.60
2018-06-27T03:55:19.389Z,10.60
2018-06-27T03:57:48.258Z,10.80
2018-06-27T04:00:16.971Z,10.80
2018-06-27T04:02:45.768Z,10.90
2018-06-27T04:05:14.502Z,10.90
2018-06-27T04:07:43.555Z,11.00
2018-06-27T04:10:12.250Z,11.10
2018-06-27T04:12:41.410Z,11.30
2018-06-27T04:15:10.120Z,11.50
2018-06-27T04:17:39.072Z,11.60
2018-06-27T04:20:07.809Z,11.70
2018-06-27T04:22:36.725Z,11.90
2018-06-27T04:25:05.592Z,12.00
2018-06-27T04:27:34.245Z,12.20
2018-06-27T04:30:03.971Z,12.40
2018-06-27T04:32:32.701Z,12.50
2018-06-27T04:35:01.480Z,12.60
2018-06-27T04:37:30.153Z,12.80
2018-06-27T04:39:58.819Z,12.60
2018-06-27T04:42:28.755Z,13.10
2018-06-27T04:44:57.608Z,13.30
2018-06-27T04:47:26.222Z,13.40
2018-06-27T04:49:55.770Z,13.50
2018-06-27T04:52:24.588Z,13.70
2018-06-27T04:54:53.621Z,13.90
2018-06-27T04:57:22.229Z,14.00
2018-06-27T04:59:51.090Z,14.20
2018-06-27T05:02:19.774Z,14.50
2018-06-27T05:04:48.337Z,14.90
2018-06-27T05:07:17.321Z,15.10
2018-06-27T05:09:46.240Z,15.20
2018-06-27T05:12:14.952Z,15.10
2018-06-27T05:14:43.689Z,15.50
2018-06-27T05:17:12.327Z,15.70
2018-06-27T05:19:43.152Z,16.20
2018-06-27T05:22:12.766Z,16.40
2018-06-27T05:24:41.659Z,16.70
2018-06-27T05:27:10.711Z,17.00
2018-06-27T05:29:39.435Z,17.20
2018-06-27T05:32:08.138Z,17.30
2018-06-27T05:34:36.918Z,17.40
2018-06-27T05:37:05.585Z,17.40
2018-06-27T05:39:34.269Z,17.60
2018-06-27T05:42:03.177Z,17.40
2018-06-27T05:44:31.820Z,17.60
2018-06-27T05:47:00.689Z,17.90
2018-06-27T05:49:29.426Z,18.30
2018-06-27T05:51:59.003Z,18.30
2018-06-27T05:54:27.969Z,18.50
2018-06-27T05:56:56.895Z,19.00
2018-06-27T05:59:25.767Z,19.80
2018-06-27T06:01:54.624Z,19.90
2018-06-27T06:04:23.382Z,20.00
2018-06-27T06:06:52.834Z,20.10
2018-06-27T06:09:21.583Z,20.40
2018-06-27T06:11:50.296Z,20.10
2018-06-27T06:14:18.967Z,20.20
2018-06-27T06:16:47.864Z,20.40
2018-06-27T06:19:16.659Z,19.30
2018-06-27T06:22:01.099Z,20.50
2018-06-27T06:26:59.124Z,20.10
2018-06-27T06:29:27.801Z,19.80
2018-06-27T06:31:56.505Z,19.80
2018-06-27T06:34:25.103Z,19.50
2018-06-27T06:36:53.937Z,19.30
2018-06-27T06:39:22.570Z,19.10
2018-06-27T06:41:53.174Z,19.80
2018-06-27T06:44:22.024Z,19.80
2018-06-27T06:46:51.053Z,19.50
2018-06-27T06:49:19.771Z,19.30
2018-06-27T06:51:48.845Z,19.60
2018-06-27T06:54:17.499Z,19.40
2018-06-27T06:56:46.111Z,19.50
2018-06-27T06:59:14.967Z,19.70
2018-06-27T07:01:43.770Z,20.40
2018-06-27T07:04:12.521Z,20.50
2018-06-27T07:06:41.053Z,20.40
2018-06-27T07:09:11.870Z,20.10
2018-06-27T07:11:40.754Z,20.20
2018-06-27T07:14:10.433Z,20.30
2018-06-27T07:16:39.675Z,20.60
2018-06-27T07:19:08.431Z,20.90
2018-06-27T07:21:37.684Z,20.80
2018-06-27T07:24:06.738Z,21.00
2018-06-27T07:26:35.474Z,21.20
2018-06-27T07:29:04.804Z,21.10
2018-06-27T07:31:33.694Z,20.60
2018-06-27T07:34:02.607Z,20.60
2018-06-27T07:36:31.393Z,21.40
2018-06-27T07:39:00.326Z,21.30
2018-06-27T07:41:28.935Z,21.40
2018-06-27T07:43:58.074Z,21.50
2018-06-27T07:46:26.845Z,21.80
2018-06-27T07:48:55.833Z,21.70
2018-06-27T07:51:24.510Z,22.00
2018-06-27T07:53:53.247Z,22.70
2018-06-27T07:56:22.122Z,23.30
2018-06-27T07:58:51.129Z,24.10
2018-06-27T08:01:19.758Z,24.50
2018-06-27T08:03:48.498Z,24.20
2018-06-27T08:06:17.291Z,23.90
2018-06-27T08:08:45.930Z,23.50
2018-06-27T08:11:14.594Z,23.80
2018-06-27T08:13:43.366Z,24.70
2018-06-27T08:16:12.083Z,25.20
2018-06-27T08:18:42.961Z,24.70
2018-06-27T08:21:12.062Z,23.50
2018-06-27T08:23:40.821Z,23.40
2018-06-27T08:26:09.622Z,24.20
2018-06-27T08:28:38.471Z,25.00
2018-06-27T08:31:07.347Z,24.40
2018-06-27T08:33:36.094Z,23.80
2018-06-27T08:36:04.875Z,24.10
2018-06-27T08:38:33.983Z,24.90
2018-06-27T08:41:02.751Z,24.60
2018-06-27T08:43:31.555Z,24.10
2018-06-27T08:46:00.311Z,24.00
2018-06-27T08:48:29.086Z,24.30
2018-06-27T08:50:59.499Z,24.80
2018-06-27T08:53:29.679Z,25.40
2018-06-27T08:55:58.633Z,25.40
2018-06-27T08:58:38.948Z,24.70
2018-06-27T09:01:08.026Z,25.30
2018-06-27T09:03:36.799Z,25.50
2018-06-27T09:06:05.619Z,25.30
2018-06-27T09:08:34.758Z,24.40
2018-06-27T09:11:03.654Z,23.90
2018-06-27T09:13:32.243Z,24.30
2018-06-27T09:16:00.941Z,24.50
2018-06-27T09:18:29.716Z,24.50
2018-06-27T09:20:58.594Z,24.90
2018-06-27T09:23:27.186Z,24.60
2018-06-27T09:25:55.739Z,24.60
2018-06-27T09:28:24.337Z,24.70
2018-06-27T09:30:52.880Z,25.20
2018-06-27T09:33:21.426Z,25.70
2018-06-27T09:35:50.218Z,26.20
2018-06-27T09:38:18.986Z,25.80
2018-06-27T09:40:47.494Z,24.90
2018-06-27T09:43:19.720Z,24.40
2018-06-27T09:45:49.126Z,24.40
2018-06-27T09:48:17.775Z,24.90
2018-06-27T09:50:46.579Z,25.60
2018-06-27T09:53:15.378Z,25.20
2018-06-27T09:55:44.058Z,25.50
2018-06-27T09:58:14.090Z,25.50
2018-06-27T10:00:42.890Z,25.30
2018-06-27T10:03:11.710Z,25.30
2018-06-27T10:05:40.298Z,25.10
2018-06-27T10:08:09.078Z,24.80
2018-06-27T10:10:37.622Z,24.90
2018-06-27T10:13:06.191Z,24.90
2018-06-27T10:15:34.876Z,24.90
2018-06-27T10:18:10.578Z,25.60
2018-06-27T10:20:39.103Z,26.00
2018-06-27T10:23:07.974Z,26.00
2018-06-27T10:25:36.737Z,26.50
2018-06-27T10:28:05.506Z,26.30
2018-06-27T10:30:34.232Z,25.50
2018-06-27T10:33:03.271Z,25.20
2018-06-27T10:35:31.962Z,25.10
2018-06-27T10:38:00.938Z,25.40
2018-06-27T10:40:29.792Z,25.60
2018-06-27T10:42:58.390Z,25.60
2018-06-27T10:45:47.099Z,26.00
2018-06-27T10:48:15.958Z,26.60
2018-06-27T10:50:45.653Z,27.00
2018-06-27T10:53:17.778Z,27.30
2018-06-27T10:55:46.618Z,27.20
2018-06-27T10:58:16.267Z,26.10
2018-06-27T11:00:44.967Z,26.30
2018-06-27T11:03:13.700Z,26.90
2018-06-27T11:05:42.581Z,27.90
2018-06-27T11:08:11.274Z,27.80
2018-06-27T11:10:40.166Z,27.60
2018-06-27T11:13:09.014Z,27.20
2018-06-27T11:15:38.501Z,27.00
2018-06-27T11:18:07.825Z,26.50
2018-06-27T11:20:39.051Z,26.30
2018-06-27T11:23:11.070Z,26.40
2018-06-27T11:25:39.785Z,26.80
2018-06-27T11:31:11.697Z,27.80
2018-06-27T11:33:40.450Z,27.50
2018-06-27T11:42:27.143Z,26.60
2018-06-27T11:44:55.882Z,27.30
2018-06-27T11:47:24.746Z,28.10
2018-06-27T11:49:53.888Z,27.60
2018-06-27T11:55:25.706Z,27.80
2018-06-27T12:01:03.898Z,28.50
2018-06-27T12:03:33.995Z,29.20
2018-06-27T12:06:02.736Z,28.50
2018-06-27T12:08:31.895Z,28.20
2018-06-27T12:11:16.580Z,28.60
2018-06-27T12:13:54.709Z,27.50
2018-06-27T12:22:28.768Z,27.30
2018-06-27T12:24:57.623Z,27.50
2018-06-27T12:27:26.337Z,27.90
2018-06-27T12:29:54.982Z,28.50
2018-06-27T12:32:23.640Z,28.60
2018-06-27T12:34:52.705Z,29.10
2018-06-27T12:37:21.740Z,29.20
2018-06-27T12:39:50.697Z,29.30
2018-06-27T12:42:19.474Z,29.40
2018-06-27T12:44:48.231Z,29.00
2018-06-27T12:47:17.399Z,28.10
2018-06-27T12:49:46.606Z,27.50
2018-06-27T12:52:15.441Z,27.70
2018-06-27T12:54:46.665Z,27.60
2018-06-27T12:57:15.524Z,28.10
2018-06-27T12:59:44.316Z,28.50
2018-06-27T13:02:13.324Z,28.70
2018-06-27T13:04:43.436Z,28.80
2018-06-27T13:07:19.692Z,28.60
2018-06-27T13:10:04.311Z,28.60
2018-06-27T13:12:33.642Z,28.60
2018-06-27T13:15:02.466Z,28.10
2018-06-27T13:17:32.488Z,27.90
2018-06-27T13:20:02.580Z,28.00
2018-06-27T13:22:37.294Z,28.20
2018-06-27T13:25:06.133Z,28.40
2018-06-27T13:27:34.762Z,28.80
2018-06-27T13:30:03.497Z,28.20
2018-06-27T13:32:32.224Z,28.20
2018-06-27T13:35:03.252Z,27.90
2018-06-27T13:37:32.385Z,27.50
2018-06-27T13:40:01.289Z,27.00
2018-06-27T13:42:30.418Z,27.10
2018-06-27T13:44:59.334Z,27.00
2018-06-27T13:47:35.596Z,27.20
2018-06-27T13:50:04.572Z,27.30
2018-06-27T13:52:33.814Z,26.80
2018-06-27T13:55:06.050Z,26.10
2018-06-27T13:57:35.081Z,26.00
2018-06-27T14:00:03.943Z,26.00
2018-06-27T14:02:32.814Z,26.20
2018-06-27T14:05:04.651Z,26.40
2018-06-27T14:07:33.403Z,26.50
2018-06-27T14:10:02.935Z,26.90
2018-06-27T14:12:31.548Z,27.00
2018-06-27T14:15:02.112Z,27.00
2018-06-27T14:17:30.880Z,26.80
2018-06-27T14:19:59.647Z,26.50
2018-06-27T14:22:28.530Z,26.20
2018-06-27T14:24:57.347Z,26.30
2018-06-27T14:27:26.419Z,26.70
2018-06-27T14:29:56.098Z,26.90
2018-06-27T14:32:24.905Z,26.90
2018-06-27T14:34:54.040Z,26.50
2018-06-27T14:37:22.877Z,26.30
2018-06-27T14:39:52.133Z,26.10
2018-06-27T14:42:20.843Z,26.10
2018-06-27T14:44:51.450Z,26.30
2018-06-27T14:47:20.252Z,26.30
2018-06-27T14:49:49.100Z,26.30
2018-06-27T14:52:18.133Z,26.10
2018-06-27T14:54:50.262Z,26.10
2018-06-27T14:57:19.437Z,26.00
2018-06-27T14:59:48.639Z,26.30
2018-06-27T15:02:17.554Z,26.20
2018-06-27T15:04:46.399Z,26.30
2018-06-27T15:07:15.389Z,26.30
2018-06-27T15:09:43.980Z,26.40
2018-06-27T15:12:33.300Z,26.50
2018-06-27T15:15:02.410Z,26.10
2018-06-27T15:17:31.231Z,26.20
2018-06-27T15:19:59.978Z,26.20
2018-06-27T15:22:28.934Z,26.40
2018-06-27T15:24:57.748Z,26.80
2018-06-27T15:27:26.505Z,26.80
2018-06-27T15:29:55.197Z,26.90
2018-06-27T15:32:23.854Z,26.30
2018-06-27T15:34:52.887Z,25.90
2018-06-27T15:37:21.438Z,25.70
2018-06-27T15:39:50.354Z,25.80
2018-06-27T15:42:18.979Z,25.90
2018-06-27T15:44:48.255Z,26.10
2018-06-27T15:47:16.796Z,26.20
2018-06-27T15:49:45.343Z,26.30
2018-06-27T15:52:14.251Z,26.00
2018-06-27T15:54:43.258Z,25.80
2018-06-27T16:00:03.690Z,25.40
2018-06-27T16:02:33.638Z,25.40
2018-06-27T16:05:02.439Z,25.60
2018-06-27T16:07:31.241Z,25.50
2018-06-27T16:10:00.360Z,25.40
2018-06-27T16:12:29.328Z,25.40
2018-06-27T16:14:58.180Z,25.10
2018-06-27T16:17:28.841Z,25.40
2018-06-27T16:19:57.522Z,25.50
2018-06-27T16:22:26.531Z,25.60
2018-06-27T16:24:55.014Z,25.30
2018-06-27T16:27:24.243Z,25.10
2018-06-27T16:29:52.971Z,25.20
2018-06-27T16:32:21.666Z,25.10
2018-06-27T16:34:50.369Z,25.10
2018-06-27T16:37:19.380Z,25.20
2018-06-27T16:39:48.454Z,25.10
2018-06-27T16:42:17.243Z,25.20
2018-06-27T16:44:45.928Z,25.40
2018-06-27T16:47:19.857Z,25.50
2018-06-27T16:49:48.558Z,25.50
2018-06-27T16:52:17.283Z,25.30
2018-06-27T16:54:45.981Z,25.00
2018-06-27T16:57:14.800Z,25.00
2018-06-27T16:59:43.447Z,25.10
2018-06-27T17:02:12.994Z,25.20
2018-06-27T17:04:41.551Z,24.90
2018-06-27T17:07:11.937Z,24.90
2018-06-27T17:09:40.761Z,24.70
2018-06-27T17:12:10.857Z,24.60
2018-06-27T17:14:39.439Z,24.70
2018-06-27T17:17:08.854Z,24.70
2018-06-27T17:19:37.533Z,24.60
2018-06-27T17:22:06.957Z,24.70
2018-06-27T17:24:35.645Z,24.50
2018-06-27T17:27:04.442Z,24.40
2018-06-27T17:29:39.240Z,24.60
2018-06-27T17:32:15.201Z,24.50
2018-06-27T17:34:43.949Z,24.20
2018-06-27T17:37:13.106Z,24.10
2018-06-27T17:39:42.886Z,24.20
2018-06-27T17:42:12.544Z,24.30
2018-06-27T17:44:41.671Z,24.10
2018-06-27T17:47:10.561Z,24.20
2018-06-27T17:49:39.233Z,24.20
2018-06-27T17:52:29.707Z,24.20
2018-06-27T17:57:50.965Z,24.10
2018-06-27T18:00:21.098Z,24.00
2018-06-27T18:05:52.657Z,23.80
2018-06-27T18:08:21.853Z,23.70
2018-06-27T18:10:50.615Z,23.70
2018-06-27T18:13:19.954Z,23.50
2018-06-27T18:18:40.574Z,23.30
2018-06-27T18:21:09.112Z,23.30
2018-06-27T18:23:40.480Z,23.30
2018-06-27T18:26:09.566Z,23.30
2018-06-27T18:28:38.378Z,23.40
2018-06-27T18:31:06.879Z,23.30
2018-06-27T18:33:40.298Z,23.40
2018-06-27T18:36:15.008Z,23.30
2018-06-27T18:38:43.572Z,23.20
2018-06-27T18:41:12.389Z,23.40
2018-06-27T18:43:40.809Z,23.30
2018-06-27T18:46:09.770Z,23.30
2018-06-27T18:48:38.330Z,23.20
2018-06-27T18:51:07.121Z,23.00
2018-06-27T18:53:35.680Z,22.80
2018-06-27T18:56:04.648Z,22.80
2018-06-27T18:58:33.760Z,22.80
2018-06-27T19:01:02.650Z,22.80
2018-06-27T19:03:31.397Z,22.70
2018-06-27T19:06:00.255Z,22.60
2018-06-27T19:08:29.286Z,22.60
2018-06-27T19:10:57.869Z,22.60
2018-06-27T19:13:26.615Z,22.40
2018-06-27T19:15:55.329Z,22.40
2018-06-27T19:18:24.081Z,22.30
2018-06-27T19:20:53.098Z,22.10
2018-06-27T19:23:22.538Z,22.20
2018-06-27T19:25:51.016Z,22.10
2018-06-27T19:28:19.942Z,22.10
2018-06-27T19:30:48.941Z,22.00
2018-06-27T19:33:17.566Z,22.00
2018-06-27T19:35:46.112Z,21.90
2018-06-27T19:38:15.145Z,21.90
2018-06-27T19:40:43.867Z,21.80
2018-06-27T19:43:12.822Z,21.60
2018-06-27T19:45:42.759Z,21.50
2018-06-27T19:48:11.657Z,21.50
2018-06-27T19:50:44.149Z,21.40
2018-06-27T19:53:12.954Z,21.30
2018-06-27T19:55:41.648Z,21.30
2018-06-27T19:58:11.574Z,21.10
2018-06-27T20:00:40.355Z,21.10
2018-06-27T20:03:09.201Z,21.00
2018-06-27T20:05:37.753Z,20.90
2018-06-27T20:08:06.465Z,20.80
2018-06-27T20:10:35.702Z,20.80
2018-06-27T20:13:06.520Z,20.70
2018-06-27T20:15:36.416Z,20.50
2018-06-27T20:18:05.377Z,20.50
2018-06-27T20:20:34.181Z,20.40
2018-06-27T20:23:02.786Z,20.40
2018-06-27T20:25:31.623Z,20.40
2018-06-27T20:28:00.440Z,20.30
2018-06-27T20:30:29.261Z,20.20
2018-06-27T20:32:57.777Z,20.20
2018-06-27T20:35:27.378Z,20.10
2018-06-27T20:37:56.701Z,20.10
2018-06-27T20:40:25.413Z,20.00
2018-06-27T20:42:53.898Z,19.90
2018-06-27T20:45:22.554Z,19.80
2018-06-27T20:50:37.366Z,19.70
2018-06-27T20:53:06.230Z,19.60
2018-06-27T20:55:35.022Z,19.60
2018-06-27T20:58:05.150Z,19.50
2018-06-27T21:00:33.842Z,19.50
2018-06-27T21:03:02.571Z,19.50
2018-06-27T21:05:31.343Z,19.50
2018-06-27T21:08:00.126Z,19.40
2018-06-27T21:10:28.942Z,19.30
2018-06-27T21:12:57.697Z,19.30
2018-06-27T21:15:26.672Z,19.30
2018-06-27T21:17:55.478Z,19.30
2018-06-27T21:20:24.263Z,19.30
2018-06-27T21:22:53.158Z,19.30
2018-06-27T21:25:22.304Z,19.20
2018-06-27T21:27:51.865Z,19.10
2018-06-27T21:30:20.679Z,19.00
2018-06-27T21:32:49.485Z,18.90
2018-06-27T21:35:18.219Z,18.90
2018-06-27T21:37:47.034Z,18.90
2018-06-27T21:40:15.790Z,18.90
2018-06-27T21:42:44.578Z,18.90
2018-06-27T21:45:13.891Z,18.80
2018-06-27T21:47:42.711Z,18.80
2018-06-27T21:50:11.526Z,18.60
2018-06-27T21:52:40.253Z,18.60
2018-06-27T21:55:08.950Z,18.60
2018-06-27T21:57:37.698Z,18.70
2018-06-27T22:00:08.215Z,18.60
2018-06-27T22:02:38.348Z,18.50
2018-06-27T22:05:07.262Z,18.60
2018-06-27T22:07:36.059Z,18.60
2018-06-27T22:10:04.798Z,18.50
2018-06-27T22:12:33.643Z,18.50
2018-06-27T22:15:03.268Z,18.40
2018-06-27T22:17:32.120Z,18.40
2018-06-27T22:20:00.920Z,18.40
2018-06-27T22:22:29.674Z,18.30
2018-06-27T22:24:58.370Z,18.10
2018-06-27T22:27:27.075Z,18.00
2018-06-27T22:29:55.920Z,17.90
2018-06-27T22:32:24.961Z,17.70
2018-06-27T22:34:53.721Z,17.50
2018-06-27T22:37:22.864Z,17.30
2018-06-27T22:39:51.669Z,17.10
2018-06-27T22:42:20.607Z,17.00
2018-06-27T22:44:49.322Z,16.90
2018-06-27T22:47:18.198Z,16.80
2018-06-27T22:49:47.262Z,16.80
2018-06-27T22:52:16.011Z,16.70
2018-06-27T22:54:44.823Z,16.80
2018-06-27T22:57:13.541Z,16.60
2018-06-27T22:59:42.929Z,16.50
2018-06-27T23:02:12.050Z,16.50
2018-06-27T23:04:41.278Z,16.40
2018-06-27T23:07:09.986Z,16.40
2018-06-27T23:09:38.781Z,16.30
2018-06-27T23:12:07.860Z,16.30
2018-06-27T23:14:36.602Z,16.20
2018-06-27T23:17:05.924Z,16.20
2018-06-27T23:19:34.662Z,16.20
2018-06-27T23:22:04.467Z,16.10
2018-06-27T23:24:33.563Z,16.00
2018-06-27T23:27:03.226Z,16.00
2018-06-27T23:29:31.983Z,16.00
2018-06-27T23:32:00.727Z,16.00
2018-06-27T23:34:29.399Z,16.10
2018-06-27T23:36:59.004Z,16.10
2018-06-27T23:39:27.725Z,16.20
2018-06-27T23:41:56.445Z,16.30
2018-06-27T23:44:25.214Z,16.30
2018-06-27T23:46:53.902Z,16.30
2018-06-27T23:49:23.368Z,16.30
2018-06-27T23:51:52.106Z,16.40
2018-06-27T23:54:20.810Z,16.50
2018-06-27T23:56:51.011Z,16.50
2018-06-27T23:59:19.784Z,16.40
